Louisville, CO

8:21 PM MDT on July 28, 2015 (GMT -0600)
Louisville- Saratoga | | Change Station
CLOSE
Current Station
Personal Weather Station
Location: Louisville, CO
Elevation: 5469 ft
Nearby Weather Stations

Elev 5469 ft 39.98 °N, 105.15 °W | Updated 14 seconds ago

Mostly Cloudy
Mostly Cloudy
74.8 °F
Feels Like 76 °F
N
10.4
Wind Variable Wind from South
Gusts 10.4 mph

Today
High -- | Low -- °F
--% Chance of Precip.
Yesterday
High -- | Low -- °F
Precip. -- in
5:55 AM 8:18 PM
Waxing Gibbous, 93% visible
Pressure 30.20 in
Visibility 40.0 miles
Clouds Mostly Cloudy 12000 ft
Heat Index 76 °F
Dew Point 34 °F
Humidity 23%
Rainfall in
Snow Depth Not available.
UV 0 out of 12
Pollen 6.40 out of 12
Air Quality Not available.
Flu Activity Not available.
METAR KBJC 290145Z 07013KT 40SM BKN120 27/03 A3020

More Conditions Fewer Conditions

Pressure 30.20 in
Visibility 40.0 miles
Clouds Mostly Cloudy 12000 ft
Heat Index 76 °F
Dew Point 34 °F
Humidity 23%
Rainfall in
Snow Depth Not available.
UV 0 out of 12
Pollen 6.40 out of 12
Air Quality Not available.
Flu Activity Not available.
METAR KBJC 290145Z 07013KT 40SM BKN120 27/03 A3020

More Conditions Fewer Conditions

10-Day Weather Forecast

×

Almanac

Astronomy

Jul. 28, 2015 Rise Set
Actual Time
Civil Twilight
Nautical Twilight
Astronomical Twilight
Moon
Length of Visible Light
Length of Day
Tomorrow will be .
, % of the Moon is Illuminated

Today's Extremes

State Highs State Lows

Community

WunderPhotos

Upload Photos

1,842,012 photos uploaded!

WunderBlogs® & News

Nearby

Air Quality

  Air Quality AQ Index Pollutant
Not available.

Snow Depth

Station Depth Elevation

Earthquake Activity

City Distance Mag. Time & Date
Minimum magnitude displayed is 2.5.

Coastal Water Temperatures

Place Temperature

Stations

Nearby Weather Stations

Station Location Temp. Windchill Dew Point Humidity Wind Precip. Elev Updated Type